Ariton, AL

9:00 PM CST on February 21, 2017 (GMT -0600)
Asbury | | Change Station

Elev 367 ft 31.51 °N, 85.55 °W | Updated 14 seconds ago

Rain
Rain
58.6 °F
Feels Like 58.6 °F
N
0.0
Wind Variable Wind from South
Gusts 0.0 mph

Today
High -- | Low -- °F
--% Chance of Precip.
Yesterday
High -- | Low -- °F
Precip. -- in
Pressure 29.83 in
Visibility 4.0 miles
Clouds Few 200 ft
Mostly Cloudy 7000 ft
Overcast 8500 ft
Dew Point 58 °F
Humidity 96%
Rainfall 1.32 in
Snow Depth Not available.
6:18 AM 5:34 PM
Waning Crescent, 20% visible
METAR KLOR 220258Z AUTO 06003KT 4SM -RA BR FEW002 BKN070 OVC085 15/15 A2988 RMK AO2 SLP101 P0006 60024 T01510147 55011
Pressure 29.83 in
Visibility 4.0 miles
Clouds Few 200 ft
Mostly Cloudy 7000 ft
Overcast 8500 ft
Dew Point 58 °F
Humidity 96%
Rainfall 1.32 in
Snow Depth Not available.
6:18 AM 5:34 PM
Waning Crescent, 20% visible
METAR KLOR 220258Z AUTO 06003KT 4SM -RA BR FEW002 BKN070 OVC085 15/15 A2988 RMK AO2 SLP101 P0006 60024 T01510147 55011

Get Your Daily Forecast Email!

Thanks for signing up!

Be on the lookout for a verification email in your inbox.

You'll start receiving the daily forecast at 8 AM.

×

10-Day Weather Forecast

Almanac

Astronomy

Feb. 21, 2017 Rise Set
Actual Time
Civil Twilight
Nautical Twilight
Astronomical Twilight
Moon
Length of Visible Light
Length of Day
Tomorrow will be .
, % of the Moon is Illuminated

Today's Extremes

State Highs State Lows

Community

WunderPhotos

Upload Photos

1,962,540 photos uploaded!

WunderBlog® & News

Nearby

Air Quality

  Air Quality AQ Index Pollutant
Not available.

Snow Depth

Station Depth Elevation

Earthquake Activity

City Distance Mag. Time & Date
Minimum magnitude displayed is 2.5.

Coastal Water Temperatures

Place Temperature

Stations

Nearby Weather Stations

Station Location Temp. Windchill Dew Point Humidity Wind Precip. Elev Updated Type
                   

Watches & Warnings

There are currently no watches in effect.